sensor_id;sensor_type;location;lat;lon;timestamp;temperature;humidity
15749;DHT22;7976;52.526;13.326;2024-02-21T00:01:22;8.90;99.90
15749;DHT22;7976;52.526;13.326;2024-02-21T00:03:51;8.90;99.90
15749;DHT22;7976;52.526;13.326;2024-02-21T00:06:20;8.90;99.90
15749;DHT22;7976;52.526;13.326;2024-02-21T00:08:47;9.00;99.90
15749;DHT22;7976;52.526;13.326;2024-02-21T00:11:18;8.90;99.90
15749;DHT22;7976;52.526;13.326;2024-02-21T00:13:47;8.90;99.90
15749;DHT22;7976;52.526;13.326;2024-02-21T00:16:17;8.90;99.90
15749;DHT22;7976;52.526;13.326;2024-02-21T00:18:44;9.00;99.90
15749;DHT22;7976;52.526;13.326;2024-02-21T00:21:14;8.90;99.90
15749;DHT22;7976;52.526;13.326;2024-02-21T00:23:48;8.90;99.90
15749;DHT22;7976;52.526;13.326;2024-02-21T00:26:20;8.80;99.90
15749;DHT22;7976;52.526;13.326;2024-02-21T00:28:50;8.80;99.90
15749;DHT22;7976;52.526;13.326;2024-02-21T00:31:17;8.80;99.90
15749;DHT22;7976;52.526;13.326;2024-02-21T00:33:48;8.70;99.90
15749;DHT22;7976;52.526;13.326;2024-02-21T00:36:16;8.70;99.90
15749;DHT22;7976;52.526;13.326;2024-02-21T00:38:43;8.70;99.90
15749;DHT22;7976;52.526;13.326;2024-02-21T00:41:13;8.70;99.90
15749;DHT22;7976;52.526;13.326;2024-02-21T00:43:41;8.70;99.90
15749;DHT22;7976;52.526;13.326;2024-02-21T00:46:08;8.70;99.90
15749;DHT22;7976;52.526;13.326;2024-02-21T00:48:35;8.70;99.90
15749;DHT22;7976;52.526;13.326;2024-02-21T00:51:03;8.80;99.90
15749;DHT22;7976;52.526;13.326;2024-02-21T00:53:30;8.80;99.90
15749;DHT22;7976;52.526;13.326;2024-02-21T00:56:00;8.80;99.90
15749;DHT22;7976;52.526;13.326;2024-02-21T00:58:32;8.80;99.90
15749;DHT22;7976;52.526;13.326;2024-02-21T01:01:00;8.80;99.90
15749;DHT22;7976;52.526;13.326;2024-02-21T01:03:32;8.80;99.90
15749;DHT22;7976;52.526;13.326;2024-02-21T01:06:00;8.70;99.90
15749;DHT22;7976;52.526;13.326;2024-02-21T01:08:27;8.70;99.90
15749;DHT22;7976;52.526;13.326;2024-02-21T01:10:56;8.80;99.90
15749;DHT22;7976;52.526;13.326;2024-02-21T01:13:23;8.80;99.90
15749;DHT22;7976;52.526;13.326;2024-02-21T01:15:51;8.70;99.90
15749;DHT22;7976;52.526;13.326;2024-02-21T01:18:26;8.70;99.90
15749;DHT22;7976;52.526;13.326;2024-02-21T01:20:53;8.80;99.90
15749;DHT22;7976;52.526;13.326;2024-02-21T01:23:21;8.80;99.90
15749;DHT22;7976;52.526;13.326;2024-02-21T01:25:48;8.80;99.90
15749;DHT22;7976;52.526;13.326;2024-02-21T01:28:15;8.80;99.90
15749;DHT22;7976;52.526;13.326;2024-02-21T01:30:42;8.80;99.90
15749;DHT22;7976;52.526;13.326;2024-02-21T01:33:11;8.80;99.90
15749;DHT22;7976;52.526;13.326;2024-02-21T01:35:38;8.80;99.90
15749;DHT22;7976;52.526;13.326;2024-02-21T01:38:05;8.80;99.90
15749;DHT22;7976;52.526;13.326;2024-02-21T01:40:34;8.80;99.90
15749;DHT22;7976;52.526;13.326;2024-02-21T01:43:01;8.80;99.90
15749;DHT22;7976;52.526;13.326;2024-02-21T01:45:30;8.80;99.90
15749;DHT22;7976;52.526;13.326;2024-02-21T01:47:58;8.90;99.90
15749;DHT22;7976;52.526;13.326;2024-02-21T01:50:26;8.80;99.90
15749;DHT22;7976;52.526;13.326;2024-02-21T01:52:55;8.80;99.90
15749;DHT22;7976;52.526;13.326;2024-02-21T01:55:23;8.90;99.90
15749;DHT22;7976;52.526;13.326;2024-02-21T01:57:56;8.80;99.90
15749;DHT22;7976;52.526;13.326;2024-02-21T02:00:23;8.80;99.90
15749;DHT22;7976;52.526;13.326;2024-02-21T02:02:53;8.80;99.90
15749;DHT22;7976;52.526;13.326;2024-02-21T02:05:22;8.80;99.90
15749;DHT22;7976;52.526;13.326;2024-02-21T02:07:54;8.80;99.90
15749;DHT22;7976;52.526;13.326;2024-02-21T02:10:22;8.80;99.90
15749;DHT22;7976;52.526;13.326;2024-02-21T02:12:49;8.80;99.90
15749;DHT22;7976;52.526;13.326;2024-02-21T02:15:16;8.80;99.90
15749;DHT22;7976;52.526;13.326;2024-02-21T02:17:43;8.80;99.90
15749;DHT22;7976;52.526;13.326;2024-02-21T02:20:10;8.70;99.90
15749;DHT22;7976;52.526;13.326;2024-02-21T02:22:39;8.60;99.90
15749;DHT22;7976;52.526;13.326;2024-02-21T02:25:11;8.50;99.90
15749;DHT22;7976;52.526;13.326;2024-02-21T02:27:42;8.40;99.90
15749;DHT22;7976;52.526;13.326;2024-02-21T02:30:11;8.40;99.90
15749;DHT22;7976;52.526;13.326;2024-02-21T02:32:38;8.30;99.90
15749;DHT22;7976;52.526;13.326;2024-02-21T02:35:05;8.20;99.90
15749;DHT22;7976;52.526;13.326;2024-02-21T02:37:32;8.20;99.90
15749;DHT22;7976;52.526;13.326;2024-02-21T02:39:59;8.20;99.90
15749;DHT22;7976;52.526;13.326;2024-02-21T02:42:27;8.10;99.90
15749;DHT22;7976;52.526;13.326;2024-02-21T02:44:54;8.10;99.90
15749;DHT22;7976;52.526;13.326;2024-02-21T02:47:22;8.10;99.90
15749;DHT22;7976;52.526;13.326;2024-02-21T02:49:49;8.00;99.90
15749;DHT22;7976;52.526;13.326;2024-02-21T02:52:16;8.00;99.90
15749;DHT22;7976;52.526;13.326;2024-02-21T02:54:43;7.90;99.90
15749;DHT22;7976;52.526;13.326;2024-02-21T02:57:10;7.90;99.90
15749;DHT22;7976;52.526;13.326;2024-02-21T02:59:38;7.90;99.90
15749;DHT22;7976;52.526;13.326;2024-02-21T03:02:05;7.90;99.90
15749;DHT22;7976;52.526;13.326;2024-02-21T03:04:31;7.90;99.90
15749;DHT22;7976;52.526;13.326;2024-02-21T03:06:58;7.90;99.90
15749;DHT22;7976;52.526;13.326;2024-02-21T03:09:25;7.80;99.90
15749;DHT22;7976;52.526;13.326;2024-02-21T03:11:52;7.80;99.90
15749;DHT22;7976;52.526;13.326;2024-02-21T03:14:22;7.80;99.90
15749;DHT22;7976;52.526;13.326;2024-02-21T03:16:52;7.80;99.90
15749;DHT22;7976;52.526;13.326;2024-02-21T03:19:19;7.70;99.90
15749;DHT22;7976;52.526;13.326;2024-02-21T03:21:46;7.70;99.90
15749;DHT22;7976;52.526;13.326;2024-02-21T03:24:13;7.70;99.90
15749;DHT22;7976;52.526;13.326;2024-02-21T03:26:39;7.70;99.90
15749;DHT22;7976;52.526;13.326;2024-02-21T03:29:06;7.70;99.90
15749;DHT22;7976;52.526;13.326;2024-02-21T03:31:34;7.70;99.90
15749;DHT22;7976;52.526;13.326;2024-02-21T03:34:02;7.70;99.90
15749;DHT22;7976;52.526;13.326;2024-02-21T03:36:29;7.70;99.90
15749;DHT22;7976;52.526;13.326;2024-02-21T03:38:56;7.70;99.90
15749;DHT22;7976;52.526;13.326;2024-02-21T03:41:23;7.60;99.90
15749;DHT22;7976;52.526;13.326;2024-02-21T03:43:50;7.70;99.90
15749;DHT22;7976;52.526;13.326;2024-02-21T03:46:16;7.60;99.90
15749;DHT22;7976;52.526;13.326;2024-02-21T03:48:43;7.60;99.90
15749;DHT22;7976;52.526;13.326;2024-02-21T03:51:12;7.60;99.90
15749;DHT22;7976;52.526;13.326;2024-02-21T03:53:40;7.60;99.90
15749;DHT22;7976;52.526;13.326;2024-02-21T03:56:07;7.60;99.90
15749;DHT22;7976;52.526;13.326;2024-02-21T03:58:34;7.70;99.90
15749;DHT22;7976;52.526;13.326;2024-02-21T04:01:01;7.70;99.90
15749;DHT22;7976;52.526;13.326;2024-02-21T04:03:29;7.70;99.90
15749;DHT22;7976;52.526;13.326;2024-02-21T04:05:56;7.70;99.90
15749;DHT22;7976;52.526;13.326;2024-02-21T04:08:25;7.70;99.90
15749;DHT22;7976;52.526;13.326;2024-02-21T04:10:51;7.70;99.90
15749;DHT22;7976;52.526;13.326;2024-02-21T04:13:18;7.70;99.90
15749;DHT22;7976;52.526;13.326;2024-02-21T04:15:46;7.70;99.90
15749;DHT22;7976;52.526;13.326;2024-02-21T04:18:13;7.70;99.90
15749;DHT22;7976;52.526;13.326;2024-02-21T04:20:41;7.70;99.90
15749;DHT22;7976;52.526;13.326;2024-02-21T04:23:09;7.80;99.90
15749;DHT22;7976;52.526;13.326;2024-02-21T04:25:37;7.70;99.90
15749;DHT22;7976;52.526;13.326;2024-02-21T04:28:05;7.70;99.90
15749;DHT22;7976;52.526;13.326;2024-02-21T04:30:33;7.70;99.90
15749;DHT22;7976;52.526;13.326;2024-02-21T04:32:59;7.80;99.90
15749;DHT22;7976;52.526;13.326;2024-02-21T04:35:27;7.70;99.90
15749;DHT22;7976;52.526;13.326;2024-02-21T04:37:54;7.70;99.90
15749;DHT22;7976;52.526;13.326;2024-02-21T04:40:22;7.70;99.90
15749;DHT22;7976;52.526;13.326;2024-02-21T04:42:50;7.80;99.90
15749;DHT22;7976;52.526;13.326;2024-02-21T04:45:17;7.80;99.90
15749;DHT22;7976;52.526;13.326;2024-02-21T04:47:44;7.70;99.90
15749;DHT22;7976;52.526;13.326;2024-02-21T04:50:11;7.70;99.90
15749;DHT22;7976;52.526;13.326;2024-02-21T04:52:39;7.80;99.90
15749;DHT22;7976;52.526;13.326;2024-02-21T04:55:06;7.80;99.90
15749;DHT22;7976;52.526;13.326;2024-02-21T04:57:33;7.80;99.90
15749;DHT22;7976;52.526;13.326;2024-02-21T05:00:02;7.80;99.90
15749;DHT22;7976;52.526;13.326;2024-02-21T05:02:30;7.90;99.90
15749;DHT22;7976;52.526;13.326;2024-02-21T05:04:57;7.90;99.90
15749;DHT22;7976;52.526;13.326;2024-02-21T05:07:24;7.90;99.90
15749;DHT22;7976;52.526;13.326;2024-02-21T05:09:51;7.90;99.90
15749;DHT22;7976;52.526;13.326;2024-02-21T05:12:18;7.90;99.90
15749;DHT22;7976;52.526;13.326;2024-02-21T05:14:45;7.90;99.90
15749;DHT22;7976;52.526;13.326;2024-02-21T05:17:15;7.90;99.90
15749;DHT22;7976;52.526;13.326;2024-02-21T05:19:41;7.90;99.90
15749;DHT22;7976;52.526;13.326;2024-02-21T05:22:08;7.90;99.90
15749;DHT22;7976;52.526;13.326;2024-02-21T05:24:35;7.90;99.90
15749;DHT22;7976;52.526;13.326;2024-02-21T05:27:03;7.90;99.90
15749;DHT22;7976;52.526;13.326;2024-02-21T05:29:29;7.90;99.90
15749;DHT22;7976;52.526;13.326;2024-02-21T05:31:57;7.90;99.90
15749;DHT22;7976;52.526;13.326;2024-02-21T05:34:26;8.00;99.90
15749;DHT22;7976;52.526;13.326;2024-02-21T05:36:52;8.00;99.90
15749;DHT22;7976;52.526;13.326;2024-02-21T05:39:20;8.00;99.90
15749;DHT22;7976;52.526;13.326;2024-02-21T05:41:48;7.90;99.90
15749;DHT22;7976;52.526;13.326;2024-02-21T05:44:16;7.90;99.90
15749;DHT22;7976;52.526;13.326;2024-02-21T05:46:43;7.90;99.90
15749;DHT22;7976;52.526;13.326;2024-02-21T05:49:10;7.90;99.90
15749;DHT22;7976;52.526;13.326;2024-02-21T05:51:39;8.00;99.90
15749;DHT22;7976;52.526;13.326;2024-02-21T05:54:05;8.00;99.90
15749;DHT22;7976;52.526;13.326;2024-02-21T05:56:33;8.00;99.90
15749;DHT22;7976;52.526;13.326;2024-02-21T05:58:59;8.00;99.90
15749;DHT22;7976;52.526;13.326;2024-02-21T06:01:27;8.00;99.90
15749;DHT22;7976;52.526;13.326;2024-02-21T06:03:54;8.00;99.90
15749;DHT22;7976;52.526;13.326;2024-02-21T06:06:20;8.00;99.90
15749;DHT22;7976;52.526;13.326;2024-02-21T06:08:49;8.00;99.90
15749;DHT22;7976;52.526;13.326;2024-02-21T06:11:16;7.90;99.90
15749;DHT22;7976;52.526;13.326;2024-02-21T06:13:43;7.90;99.90
15749;DHT22;7976;52.526;13.326;2024-02-21T06:16:10;8.00;99.90
15749;DHT22;7976;52.526;13.326;2024-02-21T06:18:37;8.00;99.90
15749;DHT22;7976;52.526;13.326;2024-02-21T06:21:04;8.00;99.90
15749;DHT22;7976;52.526;13.326;2024-02-21T06:23:31;8.00;99.90
15749;DHT22;7976;52.526;13.326;2024-02-21T06:25:59;8.00;99.90
15749;DHT22;7976;52.526;13.326;2024-02-21T06:28:26;8.00;99.90
15749;DHT22;7976;52.526;13.326;2024-02-21T06:30:53;8.00;99.90
15749;DHT22;7976;52.526;13.326;2024-02-21T06:33:20;8.00;99.90
15749;DHT22;7976;52.526;13.326;2024-02-21T06:35:50;8.00;99.90
15749;DHT22;7976;52.526;13.326;2024-02-21T06:38:19;8.00;99.90
15749;DHT22;7976;52.526;13.326;2024-02-21T06:40:46;8.00;99.90
15749;DHT22;7976;52.526;13.326;2024-02-21T06:43:18;8.00;99.90
15749;DHT22;7976;52.526;13.326;2024-02-21T06:45:46;8.10;99.90
15749;DHT22;7976;52.526;13.326;2024-02-21T06:48:16;8.10;99.90
15749;DHT22;7976;52.526;13.326;2024-02-21T06:50:44;8.10;99.90
15749;DHT22;7976;52.526;13.326;2024-02-21T06:53:12;8.20;99.90
15749;DHT22;7976;52.526;13.326;2024-02-21T06:55:39;8.20;99.90
15749;DHT22;7976;52.526;13.326;2024-02-21T06:58:06;8.20;99.90
15749;DHT22;7976;52.526;13.326;2024-02-21T07:00:38;8.20;99.90
15749;DHT22;7976;52.526;13.326;2024-02-21T07:03:05;8.20;99.90
15749;DHT22;7976;52.526;13.326;2024-02-21T07:05:33;8.20;99.90
15749;DHT22;7976;52.526;13.326;2024-02-21T07:08:00;8.20;99.90
15749;DHT22;7976;52.526;13.326;2024-02-21T07:10:29;8.10;99.90
15749;DHT22;7976;52.526;13.326;2024-02-21T07:12:56;8.10;99.90
15749;DHT22;7976;52.526;13.326;2024-02-21T07:15:22;8.20;99.90
15749;DHT22;7976;52.526;13.326;2024-02-21T07:17:53;8.20;99.90
15749;DHT22;7976;52.526;13.326;2024-02-21T07:36:29;8.20;99.90
15749;DHT22;7976;52.526;13.326;2024-02-21T07:38:56;8.40;99.90
15749;DHT22;7976;52.526;13.326;2024-02-21T07:41:23;8.40;99.90
15749;DHT22;7976;52.526;13.326;2024-02-21T07:43:51;8.50;99.90
15749;DHT22;7976;52.526;13.326;2024-02-21T07:46:18;8.50;99.90
15749;DHT22;7976;52.526;13.326;2024-02-21T07:48:45;8.50;99.90
15749;DHT22;7976;52.526;13.326;2024-02-21T07:51:12;8.50;99.90
15749;DHT22;7976;52.526;13.326;2024-02-21T07:53:41;8.50;99.90
15749;DHT22;7976;52.526;13.326;2024-02-21T07:56:10;8.50;99.90
15749;DHT22;7976;52.526;13.326;2024-02-21T07:58:37;8.50;99.90
15749;DHT22;7976;52.526;13.326;2024-02-21T08:01:03;8.50;99.90
15749;DHT22;7976;52.526;13.326;2024-02-21T08:03:30;8.50;99.90
15749;DHT22;7976;52.526;13.326;2024-02-21T08:05:57;8.50;99.90
15749;DHT22;7976;52.526;13.326;2024-02-21T08:08:24;8.60;99.90
15749;DHT22;7976;52.526;13.326;2024-02-21T08:10:53;8.60;99.90
15749;DHT22;7976;52.526;13.326;2024-02-21T08:13:20;8.70;99.90
15749;DHT22;7976;52.526;13.326;2024-02-21T08:15:46;8.70;99.90
15749;DHT22;7976;52.526;13.326;2024-02-21T08:18:13;8.70;99.90
15749;DHT22;7976;52.526;13.326;2024-02-21T08:20:40;8.70;99.90
15749;DHT22;7976;52.526;13.326;2024-02-21T08:23:07;8.80;99.90
15749;DHT22;7976;52.526;13.326;2024-02-21T08:25:34;8.80;99.90
15749;DHT22;7976;52.526;13.326;2024-02-21T08:28:03;8.80;99.90
15749;DHT22;7976;52.526;13.326;2024-02-21T08:30:31;8.80;99.90
15749;DHT22;7976;52.526;13.326;2024-02-21T08:32:58;8.90;99.90
15749;DHT22;7976;52.526;13.326;2024-02-21T08:35:25;8.90;99.90
15749;DHT22;7976;52.526;13.326;2024-02-21T08:37:51;8.90;99.90
15749;DHT22;7976;52.526;13.326;2024-02-21T08:40:18;9.00;99.90
15749;DHT22;7976;52.526;13.326;2024-02-21T08:42:46;9.00;99.90
15749;DHT22;7976;52.526;13.326;2024-02-21T08:45:15;9.00;99.90
15749;DHT22;7976;52.526;13.326;2024-02-21T08:47:42;9.10;99.90
15749;DHT22;7976;52.526;13.326;2024-02-21T08:50:10;9.20;99.90
15749;DHT22;7976;52.526;13.326;2024-02-21T08:52:37;9.30;99.90
15749;DHT22;7976;52.526;13.326;2024-02-21T08:55:05;9.40;99.90
15749;DHT22;7976;52.526;13.326;2024-02-21T08:57:32;9.50;99.90
15749;DHT22;7976;52.526;13.326;2024-02-21T09:00:04;9.60;99.90
15749;DHT22;7976;52.526;13.326;2024-02-21T09:02:39;9.70;99.90
15749;DHT22;7976;52.526;13.326;2024-02-21T09:05:08;9.70;99.90
15749;DHT22;7976;52.526;13.326;2024-02-21T09:07:35;9.70;99.90
15749;DHT22;7976;52.526;13.326;2024-02-21T09:10:02;9.70;99.90
15749;DHT22;7976;52.526;13.326;2024-02-21T09:12:29;9.70;99.90
15749;DHT22;7976;52.526;13.326;2024-02-21T09:14:56;9.70;99.90
15749;DHT22;7976;52.526;13.326;2024-02-21T09:17:23;9.70;99.90
15749;DHT22;7976;52.526;13.326;2024-02-21T09:19:51;9.70;99.90
15749;DHT22;7976;52.526;13.326;2024-02-21T09:22:20;9.70;99.90
15749;DHT22;7976;52.526;13.326;2024-02-21T09:24:47;9.70;99.90
15749;DHT22;7976;52.526;13.326;2024-02-21T09:27:14;9.70;99.90
15749;DHT22;7976;52.526;13.326;2024-02-21T09:29:41;9.70;99.90
15749;DHT22;7976;52.526;13.326;2024-02-21T09:32:08;9.70;99.90
15749;DHT22;7976;52.526;13.326;2024-02-21T09:34:34;9.80;99.90
15749;DHT22;7976;52.526;13.326;2024-02-21T09:37:03;9.80;99.90
15749;DHT22;7976;52.526;13.326;2024-02-21T09:39:30;9.80;99.90
15749;DHT22;7976;52.526;13.326;2024-02-21T09:41:59;9.80;99.90
15749;DHT22;7976;52.526;13.326;2024-02-21T09:44:37;9.90;99.90
15749;DHT22;7976;52.526;13.326;2024-02-21T09:47:07;9.90;99.90
15749;DHT22;7976;52.526;13.326;2024-02-21T09:49:40;10.00;99.90
15749;DHT22;7976;52.526;13.326;2024-02-21T09:52:12;10.10;99.90
15749;DHT22;7976;52.526;13.326;2024-02-21T09:54:41;10.20;99.90
15749;DHT22;7976;52.526;13.326;2024-02-21T09:57:10;10.20;99.90
15749;DHT22;7976;52.526;13.326;2024-02-21T09:59:37;10.20;99.90
15749;DHT22;7976;52.526;13.326;2024-02-21T10:02:04;10.20;99.90
15749;DHT22;7976;52.526;13.326;2024-02-21T10:04:32;10.30;99.90
15749;DHT22;7976;52.526;13.326;2024-02-21T10:07:01;10.30;99.90
15749;DHT22;7976;52.526;13.326;2024-02-21T10:09:32;10.30;99.90
15749;DHT22;7976;52.526;13.326;2024-02-21T10:12:08;10.30;99.90
15749;DHT22;7976;52.526;13.326;2024-02-21T10:14:39;10.30;99.90
15749;DHT22;7976;52.526;13.326;2024-02-21T10:17:06;10.30;99.90
15749;DHT22;7976;52.526;13.326;2024-02-21T10:19:34;10.40;99.90
15749;DHT22;7976;52.526;13.326;2024-02-21T10:22:02;10.50;99.90
15749;DHT22;7976;52.526;13.326;2024-02-21T10:24:31;10.40;99.90
15749;DHT22;7976;52.526;13.326;2024-02-21T10:27:01;10.40;99.90
15749;DHT22;7976;52.526;13.326;2024-02-21T10:29:29;10.40;99.90
15749;DHT22;7976;52.526;13.326;2024-02-21T10:32:07;10.50;99.90
15749;DHT22;7976;52.526;13.326;2024-02-21T10:34:35;10.50;99.90
15749;DHT22;7976;52.526;13.326;2024-02-21T10:37:02;10.60;99.90
15749;DHT22;7976;52.526;13.326;2024-02-21T10:39:32;10.70;99.90
15749;DHT22;7976;52.526;13.326;2024-02-21T10:42:01;10.70;99.90
15749;DHT22;7976;52.526;13.326;2024-02-21T10:44:30;10.70;99.90
15749;DHT22;7976;52.526;13.326;2024-02-21T10:46:58;10.70;99.90
15749;DHT22;7976;52.526;13.326;2024-02-21T10:49:26;10.60;99.90
15749;DHT22;7976;52.526;13.326;2024-02-21T10:51:55;10.50;99.90
15749;DHT22;7976;52.526;13.326;2024-02-21T10:54:43;10.40;99.90
15749;DHT22;7976;52.526;13.326;2024-02-21T10:57:13;10.40;99.90
15749;DHT22;7976;52.526;13.326;2024-02-21T10:59:40;10.40;99.90
15749;DHT22;7976;52.526;13.326;2024-02-21T11:02:07;10.40;99.90
15749;DHT22;7976;52.526;13.326;2024-02-21T11:04:35;10.40;99.90
15749;DHT22;7976;52.526;13.326;2024-02-21T11:07:05;10.30;99.90
15749;DHT22;7976;52.526;13.326;2024-02-21T11:09:34;10.30;99.90
15749;DHT22;7976;52.526;13.326;2024-02-21T11:12:02;10.50;99.90
15749;DHT22;7976;52.526;13.326;2024-02-21T11:14:30;10.60;99.90
15749;DHT22;7976;52.526;13.326;2024-02-21T11:17:01;10.70;99.90
15749;DHT22;7976;52.526;13.326;2024-02-21T11:19:29;10.90;99.90
15749;DHT22;7976;52.526;13.326;2024-02-21T11:21:57;11.10;99.90
15749;DHT22;7976;52.526;13.326;2024-02-21T11:24:27;11.30;99.90
15749;DHT22;7976;52.526;13.326;2024-02-21T11:27:07;11.40;99.90
15749;DHT22;7976;52.526;13.326;2024-02-21T11:29:40;11.40;99.90
15749;DHT22;7976;52.526;13.326;2024-02-21T11:32:09;11.40;99.90
15749;DHT22;7976;52.526;13.326;2024-02-21T11:34:37;11.50;99.90
15749;DHT22;7976;52.526;13.326;2024-02-21T11:37:13;11.60;99.90
15749;DHT22;7976;52.526;13.326;2024-02-21T11:39:42;11.50;99.90
15749;DHT22;7976;52.526;13.326;2024-02-21T11:42:10;11.50;99.90
15749;DHT22;7976;52.526;13.326;2024-02-21T11:44:38;11.60;99.90
15749;DHT22;7976;52.526;13.326;2024-02-21T11:47:08;11.60;99.90
15749;DHT22;7976;52.526;13.326;2024-02-21T11:49:37;11.70;99.90
15749;DHT22;7976;52.526;13.326;2024-02-21T11:52:05;11.60;99.90
15749;DHT22;7976;52.526;13.326;2024-02-21T11:54:33;11.50;99.90
15749;DHT22;7976;52.526;13.326;2024-02-21T11:57:00;11.50;99.90
15749;DHT22;7976;52.526;13.326;2024-02-21T11:59:31;11.80;99.90
15749;DHT22;7976;52.526;13.326;2024-02-21T12:01:59;11.90;99.90
15749;DHT22;7976;52.526;13.326;2024-02-21T12:04:28;11.90;99.90
15749;DHT22;7976;52.526;13.326;2024-02-21T12:06:57;11.90;99.90
15749;DHT22;7976;52.526;13.326;2024-02-21T12:09:24;12.00;99.90
15749;DHT22;7976;52.526;13.326;2024-02-21T12:11:58;12.00;99.90
15749;DHT22;7976;52.526;13.326;2024-02-21T12:14:27;12.20;99.90
15749;DHT22;7976;52.526;13.326;2024-02-21T12:16:57;12.20;99.90
15749;DHT22;7976;52.526;13.326;2024-02-21T12:19:23;12.30;99.90
15749;DHT22;7976;52.526;13.326;2024-02-21T12:21:51;12.40;99.90
15749;DHT22;7976;52.526;13.326;2024-02-21T12:24:21;12.50;99.90
15749;DHT22;7976;52.526;13.326;2024-02-21T12:26:49;12.40;99.90
15749;DHT22;7976;52.526;13.326;2024-02-21T12:29:17;12.50;99.90
15749;DHT22;7976;52.526;13.326;2024-02-21T12:31:44;12.40;99.90
15749;DHT22;7976;52.526;13.326;2024-02-21T12:34:12;12.40;99.90
15749;DHT22;7976;52.526;13.326;2024-02-21T12:36:41;12.40;99.90
15749;DHT22;7976;52.526;13.326;2024-02-21T12:39:09;12.30;99.90
15749;DHT22;7976;52.526;13.326;2024-02-21T12:41:37;12.20;99.90
15749;DHT22;7976;52.526;13.326;2024-02-21T12:44:04;12.00;99.90
15749;DHT22;7976;52.526;13.326;2024-02-21T12:46:32;11.90;99.90
15749;DHT22;7976;52.526;13.326;2024-02-21T12:48:59;11.80;99.90
15749;DHT22;7976;52.526;13.326;2024-02-21T12:51:27;11.80;99.90
15749;DHT22;7976;52.526;13.326;2024-02-21T12:53:55;11.80;99.90
15749;DHT22;7976;52.526;13.326;2024-02-21T12:56:22;11.90;99.90
15749;DHT22;7976;52.526;13.326;2024-02-21T12:58:49;12.00;99.90
15749;DHT22;7976;52.526;13.326;2024-02-21T13:01:16;12.00;99.90
15749;DHT22;7976;52.526;13.326;2024-02-21T13:03:43;12.10;99.90
15749;DHT22;7976;52.526;13.326;2024-02-21T13:06:12;12.10;99.90
15749;DHT22;7976;52.526;13.326;2024-02-21T13:08:41;12.20;99.90
15749;DHT22;7976;52.526;13.326;2024-02-21T13:11:09;12.30;99.90
15749;DHT22;7976;52.526;13.326;2024-02-21T13:13:36;12.30;99.90
15749;DHT22;7976;52.526;13.326;2024-02-21T13:16:04;12.30;99.90
15749;DHT22;7976;52.526;13.326;2024-02-21T13:18:31;12.30;99.90
15749;DHT22;7976;52.526;13.326;2024-02-21T13:20:59;12.20;99.90
15749;DHT22;7976;52.526;13.326;2024-02-21T13:23:26;12.20;99.90
15749;DHT22;7976;52.526;13.326;2024-02-21T13:25:54;12.30;99.90
15749;DHT22;7976;52.526;13.326;2024-02-21T13:28:21;12.30;99.90
15749;DHT22;7976;52.526;13.326;2024-02-21T13:30:48;12.30;99.90
15749;DHT22;7976;52.526;13.326;2024-02-21T13:33:15;12.40;99.90
15749;DHT22;7976;52.526;13.326;2024-02-21T13:35:42;12.40;99.90
15749;DHT22;7976;52.526;13.326;2024-02-21T13:38:10;12.40;99.90
15749;DHT22;7976;52.526;13.326;2024-02-21T13:40:37;12.40;99.90
15749;DHT22;7976;52.526;13.326;2024-02-21T13:43:05;12.30;99.90
15749;DHT22;7976;52.526;13.326;2024-02-21T13:45:32;12.30;99.90
15749;DHT22;7976;52.526;13.326;2024-02-21T13:47:59;12.30;99.90
15749;DHT22;7976;52.526;13.326;2024-02-21T13:50:30;12.20;99.90
15749;DHT22;7976;52.526;13.326;2024-02-21T13:52:58;12.10;99.90
15749;DHT22;7976;52.526;13.326;2024-02-21T13:55:25;12.10;99.90
15749;DHT22;7976;52.526;13.326;2024-02-21T13:57:52;12.00;99.90
15749;DHT22;7976;52.526;13.326;2024-02-21T14:00:21;12.00;99.90
15749;DHT22;7976;52.526;13.326;2024-02-21T14:02:48;12.00;99.90
15749;DHT22;7976;52.526;13.326;2024-02-21T14:05:15;12.00;99.90
15749;DHT22;7976;52.526;13.326;2024-02-21T14:07:41;12.00;99.90
15749;DHT22;7976;52.526;13.326;2024-02-21T14:10:09;12.00;99.90
15749;DHT22;7976;52.526;13.326;2024-02-21T14:12:36;12.00;99.90
15749;DHT22;7976;52.526;13.326;2024-02-21T14:15:06;12.00;99.90
15749;DHT22;7976;52.526;13.326;2024-02-21T14:17:36;11.90;99.90
15749;DHT22;7976;52.526;13.326;2024-02-21T14:20:06;11.90;99.90
15749;DHT22;7976;52.526;13.326;2024-02-21T14:22:34;11.90;99.90
15749;DHT22;7976;52.526;13.326;2024-02-21T14:25:03;11.90;99.90
15749;DHT22;7976;52.526;13.326;2024-02-21T14:27:31;11.90;99.90
15749;DHT22;7976;52.526;13.326;2024-02-21T14:29:58;11.90;99.90
15749;DHT22;7976;52.526;13.326;2024-02-21T14:32:25;11.90;99.90
15749;DHT22;7976;52.526;13.326;2024-02-21T14:34:53;12.00;99.90
15749;DHT22;7976;52.526;13.326;2024-02-21T14:37:20;12.00;99.90
15749;DHT22;7976;52.526;13.326;2024-02-21T14:39:47;12.00;99.90
15749;DHT22;7976;52.526;13.326;2024-02-21T14:42:14;12.00;99.90
15749;DHT22;7976;52.526;13.326;2024-02-21T14:44:40;12.00;99.90
15749;DHT22;7976;52.526;13.326;2024-02-21T14:47:07;12.00;99.90
15749;DHT22;7976;52.526;13.326;2024-02-21T14:49:34;12.00;99.90
15749;DHT22;7976;52.526;13.326;2024-02-21T14:52:03;12.00;99.90
15749;DHT22;7976;52.526;13.326;2024-02-21T14:54:30;12.00;99.90
15749;DHT22;7976;52.526;13.326;2024-02-21T14:56:57;12.00;99.90
15749;DHT22;7976;52.526;13.326;2024-02-21T14:59:23;12.00;99.90
15749;DHT22;7976;52.526;13.326;2024-02-21T15:01:50;12.00;99.90
15749;DHT22;7976;52.526;13.326;2024-02-21T15:04:17;12.00;99.90
15749;DHT22;7976;52.526;13.326;2024-02-21T15:06:44;12.00;99.90
15749;DHT22;7976;52.526;13.326;2024-02-21T15:09:13;12.00;99.90
15749;DHT22;7976;52.526;13.326;2024-02-21T15:11:40;11.90;99.90
15749;DHT22;7976;52.526;13.326;2024-02-21T15:14:08;11.90;99.90
15749;DHT22;7976;52.526;13.326;2024-02-21T15:16:35;11.90;99.90
15749;DHT22;7976;52.526;13.326;2024-02-21T15:19:03;11.80;99.90
15749;DHT22;7976;52.526;13.326;2024-02-21T15:21:30;11.70;99.90
15749;DHT22;7976;52.526;13.326;2024-02-21T15:23:56;11.60;99.90
15749;DHT22;7976;52.526;13.326;2024-02-21T15:26:25;11.60;99.90
15749;DHT22;7976;52.526;13.326;2024-02-21T15:28:52;11.50;99.90
15749;DHT22;7976;52.526;13.326;2024-02-21T15:31:22;11.40;99.90
15749;DHT22;7976;52.526;13.326;2024-02-21T15:33:49;11.30;99.90
15749;DHT22;7976;52.526;13.326;2024-02-21T15:36:17;11.30;99.90
15749;DHT22;7976;52.526;13.326;2024-02-21T15:38:45;11.20;99.90
15749;DHT22;7976;52.526;13.326;2024-02-21T15:41:12;11.10;99.90
15749;DHT22;7976;52.526;13.326;2024-02-21T15:43:41;11.10;99.90
15749;DHT22;7976;52.526;13.326;2024-02-21T15:46:11;11.00;99.90
15749;DHT22;7976;52.526;13.326;2024-02-21T15:48:39;11.00;99.90
15749;DHT22;7976;52.526;13.326;2024-02-21T15:51:14;10.90;99.90
15749;DHT22;7976;52.526;13.326;2024-02-21T15:53:41;10.90;99.90
15749;DHT22;7976;52.526;13.326;2024-02-21T15:56:10;10.80;99.90
15749;DHT22;7976;52.526;13.326;2024-02-21T15:58:41;10.80;99.90
15749;DHT22;7976;52.526;13.326;2024-02-21T16:01:12;10.70;99.90